sensor_id;sensor_type;location;lat;lon;timestamp;pressure;altitude;pressure_sealevel;temperature;humidity
75788;BME280;64406;50.024;14.492;2023-03-29T00:01:50;98606.53;;;-1.43;70.58
75788;BME280;64406;50.024;14.492;2023-03-29T00:04:17;98596.38;;;-1.40;70.15
75788;BME280;64406;50.024;14.492;2023-03-29T00:06:46;98617.59;;;-1.26;69.49
75788;BME280;64406;50.024;14.492;2023-03-29T00:09:16;98600.56;;;-1.24;69.57
75788;BME280;64406;50.024;14.492;2023-03-29T00:11:42;98601.84;;;-1.13;69.21
75788;BME280;64406;50.024;14.492;2023-03-29T00:14:09;98601.06;;;-1.07;68.73
75788;BME280;64406;50.024;14.492;2023-03-29T00:16:34;98593.00;;;-0.99;68.82
75788;BME280;64406;50.024;14.492;2023-03-29T00:19:00;98604.00;;;-0.89;68.18
75788;BME280;64406;50.024;14.492;2023-03-29T00:21:26;98601.81;;;-0.85;68.34
75788;BME280;64406;50.024;14.492;2023-03-29T00:23:51;98603.22;;;-0.83;67.29
75788;BME280;64406;50.024;14.492;2023-03-29T00:26:17;98601.41;;;-0.82;67.83
75788;BME280;64406;50.024;14.492;2023-03-29T00:28:43;98602.81;;;-0.79;67.79
75788;BME280;64406;50.024;14.492;2023-03-29T00:31:11;98602.41;;;-0.83;68.02
75788;BME280;64406;50.024;14.492;2023-03-29T00:33:37;98588.31;;;-0.97;68.08
75788;BME280;64406;50.024;14.492;2023-03-29T00:36:03;98599.31;;;-0.93;68.25
75788;BME280;64406;50.024;14.492;2023-03-29T00:38:29;98594.22;;;-0.95;68.25
75788;BME280;64406;50.024;14.492;2023-03-29T00:40:55;98594.63;;;-0.98;68.38
75788;BME280;64406;50.024;14.492;2023-03-29T00:43:21;98597.28;;;-0.98;68.92
75788;BME280;64406;50.024;14.492;2023-03-29T00:45:47;98592.97;;;-1.05;69.45
75788;BME280;64406;50.024;14.492;2023-03-29T00:48:22;98596.59;;;-1.06;69.25
75788;BME280;64406;50.024;14.492;2023-03-29T00:50:53;98592.28;;;-1.14;69.54
75788;BME280;64406;50.024;14.492;2023-03-29T00:53:26;98585.56;;;-1.17;70.35
75788;BME280;64406;50.024;14.492;2023-03-29T00:55:58;98593.09;;;-1.14;69.80
75788;BME280;64406;50.024;14.492;2023-03-29T00:58:38;98582.47;;;-1.20;69.71
75788;BME280;64406;50.024;14.492;2023-03-29T01:01:09;98577.16;;;-1.27;69.94
75788;BME280;64406;50.024;14.492;2023-03-29T01:03:47;98578.69;;;-1.39;70.28
75788;BME280;64406;50.024;14.492;2023-03-29T01:06:16;98584.78;;;-1.45;71.03
75788;BME280;64406;50.024;14.492;2023-03-29T01:08:46;98582.09;;;-1.52;71.24
75788;BME280;64406;50.024;14.492;2023-03-29T01:11:17;98566.16;;;-1.65;71.57
75788;BME280;64406;50.024;14.492;2023-03-29T01:16:19;98572.25;;;-1.65;71.95
75788;BME280;64406;50.024;14.492;2023-03-29T01:18:47;98558.75;;;-1.76;72.20
75788;BME280;64406;50.024;14.492;2023-03-29T01:27:02;98565.78;;;-1.83;73.40
75788;BME280;64406;50.024;14.492;2023-03-29T01:29:43;98565.34;;;-1.87;72.52
75788;BME280;64406;50.024;14.492;2023-03-29T01:32:20;98560.00;;;-1.94;73.40
75788;BME280;64406;50.024;14.492;2023-03-29T01:35:03;98564.22;;;-1.99;73.10
75788;BME280;64406;50.024;14.492;2023-03-29T01:37:49;98561.53;;;-1.84;73.17
75788;BME280;64406;50.024;14.492;2023-03-29T01:40:17;98557.88;;;-1.83;71.95
75788;BME280;64406;50.024;14.492;2023-03-29T01:51:27;98560.66;;;-1.63;71.92
75788;BME280;64406;50.024;14.492;2023-03-29T01:56:28;98550.66;;;-1.68;72.04
75788;BME280;64406;50.024;14.492;2023-03-29T01:59:04;98549.91;;;-1.62;71.22
75788;BME280;64406;50.024;14.492;2023-03-29T02:01:33;98557.03;;;-1.62;71.72
75788;BME280;64406;50.024;14.492;2023-03-29T02:04:04;98543.81;;;-1.62;72.34
75788;BME280;64406;50.024;14.492;2023-03-29T02:06:32;98544.19;;;-1.66;71.68
75788;BME280;64406;50.024;14.492;2023-03-29T02:08:59;98549.38;;;-1.79;71.91
75788;BME280;64406;50.024;14.492;2023-03-29T02:11:25;98555.03;;;-1.82;72.14
75788;BME280;64406;50.024;14.492;2023-03-29T02:13:54;98535.25;;;-1.93;72.64
75788;BME280;64406;50.024;14.492;2023-03-29T02:16:20;98536.06;;;-1.92;72.61
75788;BME280;64406;50.024;14.492;2023-03-29T02:18:47;98525.91;;;-1.95;72.59
75788;BME280;64406;50.024;14.492;2023-03-29T02:21:22;98533.38;;;-1.99;72.50
75788;BME280;64406;50.024;14.492;2023-03-29T02:23:49;98522.81;;;-1.99;72.73
75788;BME280;64406;50.024;14.492;2023-03-29T02:26:15;98518.78;;;-1.95;72.91
75788;BME280;64406;50.024;14.492;2023-03-29T02:28:42;98509.66;;;-1.92;72.65
75788;BME280;64406;50.024;14.492;2023-03-29T02:31:16;98500.81;;;-1.84;71.98
75788;BME280;64406;50.024;14.492;2023-03-29T02:33:49;98499.34;;;-1.87;72.46
75788;BME280;64406;50.024;14.492;2023-03-29T02:36:26;98503.66;;;-1.79;73.17
75788;BME280;64406;50.024;14.492;2023-03-29T02:38:55;98514.22;;;-1.79;72.50
75788;BME280;64406;50.024;14.492;2023-03-29T02:41:24;98501.03;;;-1.79;73.25
75788;BME280;64406;50.024;14.492;2023-03-29T02:43:51;98492.97;;;-1.71;72.37
75788;BME280;64406;50.024;14.492;2023-03-29T02:46:18;98478.75;;;-1.70;72.33
75788;BME280;64406;50.024;14.492;2023-03-29T02:48:45;98491.59;;;-1.60;71.14
75788;BME280;64406;50.024;14.492;2023-03-29T02:51:19;98490.00;;;-1.55;71.57
75788;BME280;64406;50.024;14.492;2023-03-29T02:53:51;98487.22;;;-1.47;71.24
75788;BME280;64406;50.024;14.492;2023-03-29T02:56:19;98479.94;;;-1.45;70.95
75788;BME280;64406;50.024;14.492;2023-03-29T02:58:44;98481.75;;;-1.45;71.08
75788;BME280;64406;50.024;14.492;2023-03-29T03:01:10;98482.31;;;-1.50;71.37
75788;BME280;64406;50.024;14.492;2023-03-29T03:03:37;98465.91;;;-1.45;70.71
75788;BME280;64406;50.024;14.492;2023-03-29T03:06:03;98467.09;;;-1.48;71.14
75788;BME280;64406;50.024;14.492;2023-03-29T03:08:29;98471.34;;;-1.47;70.84
75788;BME280;64406;50.024;14.492;2023-03-29T03:10:55;98472.81;;;-1.44;70.15
75788;BME280;64406;50.024;14.492;2023-03-29T03:13:20;98469.97;;;-1.43;70.75
75788;BME280;64406;50.024;14.492;2023-03-29T03:15:46;98466.34;;;-1.35;70.22
75788;BME280;64406;50.024;14.492;2023-03-29T03:18:14;98463.72;;;-1.28;69.99
75788;BME280;64406;50.024;14.492;2023-03-29T03:20:40;98453.19;;;-1.22;69.47
75788;BME280;64406;50.024;14.492;2023-03-29T03:23:07;98456.25;;;-1.18;69.08
75788;BME280;64406;50.024;14.492;2023-03-29T03:25:34;98447.53;;;-1.19;69.73
75788;BME280;64406;50.024;14.492;2023-03-29T03:28:00;98455.47;;;-1.12;69.52
75788;BME280;64406;50.024;14.492;2023-03-29T03:30:27;98460.34;;;-1.09;68.92
75788;BME280;64406;50.024;14.492;2023-03-29T03:32:53;98442.69;;;-1.02;67.84
75788;BME280;64406;50.024;14.492;2023-03-29T03:35:20;98455.72;;;-0.94;68.79
75788;BME280;64406;50.024;14.492;2023-03-29T03:37:45;98443.94;;;-0.91;68.19
75788;BME280;64406;50.024;14.492;2023-03-29T03:40:11;98449.22;;;-0.98;68.08
75788;BME280;64406;50.024;14.492;2023-03-29T03:42:40;98452.06;;;-0.93;68.31
75788;BME280;64406;50.024;14.492;2023-03-29T03:45:07;98448.59;;;-0.93;68.32
75788;BME280;64406;50.024;14.492;2023-03-29T03:47:34;98445.56;;;-0.97;68.00
75788;BME280;64406;50.024;14.492;2023-03-29T03:50:02;98446.16;;;-0.95;69.11
75788;BME280;64406;50.024;14.492;2023-03-29T03:52:28;98448.22;;;-0.84;68.01
75788;BME280;64406;50.024;14.492;2023-03-29T03:54:56;98449.84;;;-0.83;67.71
75788;BME280;64406;50.024;14.492;2023-03-29T03:57:22;98449.88;;;-0.69;67.32
75788;BME280;64406;50.024;14.492;2023-03-29T03:59:49;98459.88;;;-0.65;66.19
75788;BME280;64406;50.024;14.492;2023-03-29T04:02:14;98454.19;;;-0.55;66.04
75788;BME280;64406;50.024;14.492;2023-03-29T04:04:40;98434.84;;;-0.62;66.06
75788;BME280;64406;50.024;14.492;2023-03-29T04:07:07;98451.31;;;-0.60;66.90
75788;BME280;64406;50.024;14.492;2023-03-29T04:09:33;98458.88;;;-0.50;66.30
75788;BME280;64406;50.024;14.492;2023-03-29T04:11:59;98453.16;;;-0.47;66.11
75788;BME280;64406;50.024;14.492;2023-03-29T04:14:26;98452.56;;;-0.43;65.76
75788;BME280;64406;50.024;14.492;2023-03-29T04:16:55;98440.97;;;-0.42;66.27
75788;BME280;64406;50.024;14.492;2023-03-29T04:19:20;98422.84;;;-0.58;65.91
75788;BME280;64406;50.024;14.492;2023-03-29T04:21:46;98457.44;;;-0.40;65.95
75788;BME280;64406;50.024;14.492;2023-03-29T04:24:15;98453.16;;;-0.41;66.15
75788;BME280;64406;50.024;14.492;2023-03-29T04:26:42;98452.13;;;-0.46;65.96
75788;BME280;64406;50.024;14.492;2023-03-29T04:29:07;98445.63;;;-0.50;67.12
75788;BME280;64406;50.024;14.492;2023-03-29T04:31:33;98455.59;;;-0.59;67.08
75788;BME280;64406;50.024;14.492;2023-03-29T04:33:59;98451.94;;;-0.65;66.99
75788;BME280;64406;50.024;14.492;2023-03-29T04:36:24;98458.06;;;-0.58;66.98
75788;BME280;64406;50.024;14.492;2023-03-29T04:38:50;98452.56;;;-0.56;67.48
75788;BME280;64406;50.024;14.492;2023-03-29T04:41:18;98444.81;;;-0.58;68.63
75788;BME280;64406;50.024;14.492;2023-03-29T04:43:45;98440.94;;;-0.55;68.02
75788;BME280;64406;50.024;14.492;2023-03-29T04:46:11;98450.31;;;-0.52;68.14
75788;BME280;64406;50.024;14.492;2023-03-29T04:48:38;98452.75;;;-0.51;68.34
75788;BME280;64406;50.024;14.492;2023-03-29T04:51:03;98448.69;;;-0.47;67.74
75788;BME280;64406;50.024;14.492;2023-03-29T04:53:29;98449.09;;;-0.57;67.90
75788;BME280;64406;50.024;14.492;2023-03-29T04:55:54;98454.19;;;-0.55;68.06
75788;BME280;64406;50.024;14.492;2023-03-29T04:58:22;98449.31;;;-0.58;67.52
75788;BME280;64406;50.024;14.492;2023-03-29T05:00:47;98442.78;;;-0.56;68.12
75788;BME280;64406;50.024;14.492;2023-03-29T05:03:14;98443.59;;;-0.55;68.11
75788;BME280;64406;50.024;14.492;2023-03-29T05:05:40;98453.59;;;-0.44;67.21
75788;BME280;64406;50.024;14.492;2023-03-29T05:08:06;98439.75;;;-0.46;66.90
75788;BME280;64406;50.024;14.492;2023-03-29T05:10:34;98443.59;;;-0.48;66.55
75788;BME280;64406;50.024;14.492;2023-03-29T05:13:00;98446.84;;;-0.33;65.98
75788;BME280;64406;50.024;14.492;2023-03-29T05:15:29;98435.06;;;-0.31;64.93
75788;BME280;64406;50.024;14.492;2023-03-29T05:17:56;98447.50;;;-0.24;65.57
75788;BME280;64406;50.024;14.492;2023-03-29T05:20:23;98436.69;;;-0.16;66.23
75788;BME280;64406;50.024;14.492;2023-03-29T05:22:49;98445.44;;;-0.16;65.51
75788;BME280;64406;50.024;14.492;2023-03-29T05:25:15;98446.66;;;-0.05;65.93
75788;BME280;64406;50.024;14.492;2023-03-29T05:27:42;98437.47;;;0.17;65.60
75788;BME280;64406;50.024;14.492;2023-03-29T05:30:11;98443.56;;;0.18;65.59
75788;BME280;64406;50.024;14.492;2023-03-29T05:32:37;98448.06;;;0.17;65.29
75788;BME280;64406;50.024;14.492;2023-03-29T05:35:04;98437.88;;;0.14;65.15
75788;BME280;64406;50.024;14.492;2023-03-29T05:37:30;98435.63;;;0.24;65.02
75788;BME280;64406;50.024;14.492;2023-03-29T05:39:57;98432.13;;;0.31;63.69
75788;BME280;64406;50.024;14.492;2023-03-29T05:42:23;98429.06;;;0.40;64.04
75788;BME280;64406;50.024;14.492;2023-03-29T05:44:49;98426.41;;;0.40;64.20
75788;BME280;64406;50.024;14.492;2023-03-29T05:47:15;98426.38;;;0.53;62.61
75788;BME280;64406;50.024;14.492;2023-03-29T05:49:41;98422.13;;;0.39;62.77
75788;BME280;64406;50.024;14.492;2023-03-29T05:52:15;98420.28;;;0.53;63.34
75788;BME280;64406;50.024;14.492;2023-03-29T05:54:41;98428.44;;;0.45;63.46
75788;BME280;64406;50.024;14.492;2023-03-29T05:57:30;98419.41;;;0.59;63.07
75788;BME280;64406;50.024;14.492;2023-03-29T05:59:58;98414.72;;;0.61;63.24
75788;BME280;64406;50.024;14.492;2023-03-29T06:02:24;98399.22;;;0.58;63.06
75788;BME280;64406;50.024;14.492;2023-03-29T06:04:50;98402.44;;;0.73;61.52
75788;BME280;64406;50.024;14.492;2023-03-29T06:07:16;98395.84;;;0.89;61.67
75788;BME280;64406;50.024;14.492;2023-03-29T06:09:42;98401.34;;;0.88;62.23
75788;BME280;64406;50.024;14.492;2023-03-29T06:12:09;98400.16;;;0.77;63.10
75788;BME280;64406;50.024;14.492;2023-03-29T06:14:34;98413.59;;;0.89;63.17
75788;BME280;64406;50.024;14.492;2023-03-29T06:17:01;98412.75;;;0.95;63.40
75788;BME280;64406;50.024;14.492;2023-03-29T06:19:27;98406.22;;;0.91;64.17
75788;BME280;64406;50.024;14.492;2023-03-29T06:21:53;98405.16;;;0.98;63.02
75788;BME280;64406;50.024;14.492;2023-03-29T06:24:19;98407.22;;;0.96;62.03
75788;BME280;64406;50.024;14.492;2023-03-29T06:26:45;98391.53;;;0.95;62.29
75788;BME280;64406;50.024;14.492;2023-03-29T06:29:11;98407.50;;;1.20;62.23
75788;BME280;64406;50.024;14.492;2023-03-29T06:31:37;98397.25;;;1.23;62.09
75788;BME280;64406;50.024;14.492;2023-03-29T06:34:02;98405.34;;;1.35;61.42
75788;BME280;64406;50.024;14.492;2023-03-29T06:36:29;98408.41;;;1.32;61.07
75788;BME280;64406;50.024;14.492;2023-03-29T06:38:56;98415.34;;;1.40;60.73
75788;BME280;64406;50.024;14.492;2023-03-29T06:41:22;98403.34;;;1.30;60.60
75788;BME280;64406;50.024;14.492;2023-03-29T06:43:48;98402.44;;;1.43;60.07
75788;BME280;64406;50.024;14.492;2023-03-29T06:46:14;98405.44;;;1.53;59.72
75788;BME280;64406;50.024;14.492;2023-03-29T06:48:41;98415.47;;;1.45;59.70
75788;BME280;64406;50.024;14.492;2023-03-29T06:51:10;98413.31;;;1.35;59.77
75788;BME280;64406;50.024;14.492;2023-03-29T06:53:36;98410.94;;;1.27;59.39
75788;BME280;64406;50.024;14.492;2023-03-29T06:56:02;98416.06;;;1.22;60.04
75788;BME280;64406;50.024;14.492;2023-03-29T06:58:33;98405.25;;;1.17;60.57
75788;BME280;64406;50.024;14.492;2023-03-29T07:01:00;98400.84;;;1.35;61.14
75788;BME280;64406;50.024;14.492;2023-03-29T07:03:26;98404.00;;;1.51;60.07
75788;BME280;64406;50.024;14.492;2023-03-29T07:05:52;98407.28;;;1.53;60.66
75788;BME280;64406;50.024;14.492;2023-03-29T07:08:25;98398.44;;;1.59;59.94
75788;BME280;64406;50.024;14.492;2023-03-29T07:10:57;98403.91;;;1.64;59.80
75788;BME280;64406;50.024;14.492;2023-03-29T07:13:23;98403.59;;;1.54;59.59
75788;BME280;64406;50.024;14.492;2023-03-29T07:15:50;98414.16;;;1.60;60.31
75788;BME280;64406;50.024;14.492;2023-03-29T07:18:16;98413.19;;;1.80;58.79
75788;BME280;64406;50.024;14.492;2023-03-29T07:20:42;98401.88;;;1.84;58.62
75788;BME280;64406;50.024;14.492;2023-03-29T07:23:09;98404.44;;;2.16;58.23
75788;BME280;64406;50.024;14.492;2023-03-29T07:25:36;98405.41;;;2.22;58.16
75788;BME280;64406;50.024;14.492;2023-03-29T07:28:01;98393.84;;;2.34;58.25
75788;BME280;64406;50.024;14.492;2023-03-29T07:30:29;98396.28;;;2.54;56.79
75788;BME280;64406;50.024;14.492;2023-03-29T07:32:55;98394.28;;;2.50;56.38
75788;BME280;64406;50.024;14.492;2023-03-29T07:35:24;98398.63;;;2.62;55.75
75788;BME280;64406;50.024;14.492;2023-03-29T07:37:50;98403.47;;;2.84;55.65
75788;BME280;64406;50.024;14.492;2023-03-29T07:40:17;98405.19;;;2.78;55.14
75788;BME280;64406;50.024;14.492;2023-03-29T07:42:51;98398.19;;;2.95;55.37
75788;BME280;64406;50.024;14.492;2023-03-29T07:45:20;98405.06;;;3.03;55.13
75788;BME280;64406;50.024;14.492;2023-03-29T07:47:46;98407.44;;;3.23;54.90
75788;BME280;64406;50.024;14.492;2023-03-29T07:50:14;98400.31;;;3.35;55.14
75788;BME280;64406;50.024;14.492;2023-03-29T07:52:40;98392.34;;;3.47;54.84
75788;BME280;64406;50.024;14.492;2023-03-29T07:55:09;98407.28;;;3.48;54.35
75788;BME280;64406;50.024;14.492;2023-03-29T07:57:35;98393.16;;;3.47;54.37
75788;BME280;64406;50.024;14.492;2023-03-29T08:00:02;98403.84;;;3.59;54.69
75788;BME280;64406;50.024;14.492;2023-03-29T08:02:52;98394.06;;;3.41;55.18
75788;BME280;64406;50.024;14.492;2023-03-29T08:05:19;98394.75;;;3.25;56.02
75788;BME280;64406;50.024;14.492;2023-03-29T08:07:46;98398.56;;;3.29;56.19
75788;BME280;64406;50.024;14.492;2023-03-29T08:10:17;98395.78;;;3.24;56.28
75788;BME280;64406;50.024;14.492;2023-03-29T08:12:45;98388.44;;;3.08;57.30
75788;BME280;64406;50.024;14.492;2023-03-29T08:15:12;98388.44;;;3.08;57.72
75788;BME280;64406;50.024;14.492;2023-03-29T08:17:38;98390.31;;;3.19;57.62
75788;BME280;64406;50.024;14.492;2023-03-29T08:20:06;98389.13;;;3.15;57.85
75788;BME280;64406;50.024;14.492;2023-03-29T08:22:32;98384.66;;;2.97;58.89
75788;BME280;64406;50.024;14.492;2023-03-29T08:24:58;98388.19;;;3.09;58.98
75788;BME280;64406;50.024;14.492;2023-03-29T08:27:24;98398.94;;;3.03;59.30
75788;BME280;64406;50.024;14.492;2023-03-29T08:29:50;98401.09;;;2.94;60.07
75788;BME280;64406;50.024;14.492;2023-03-29T08:32:16;98403.66;;;3.00;60.61
75788;BME280;64406;50.024;14.492;2023-03-29T08:34:42;98403.53;;;2.95;60.52
75788;BME280;64406;50.024;14.492;2023-03-29T08:37:08;98416.03;;;2.95;60.99
75788;BME280;64406;50.024;14.492;2023-03-29T08:39:35;98391.31;;;3.06;60.19
75788;BME280;64406;50.024;14.492;2023-03-29T08:50:34;98381.53;;;3.18;61.11
75788;BME280;64406;50.024;14.492;2023-03-29T08:53:05;98394.50;;;3.26;60.77
75788;BME280;64406;50.024;14.492;2023-03-29T08:55:38;98387.25;;;3.45;60.41
75788;BME280;64406;50.024;14.492;2023-03-29T08:58:07;98399.97;;;3.32;60.74
75788;BME280;64406;50.024;14.492;2023-03-29T09:01:03;98392.66;;;3.27;60.91
75788;BME280;64406;50.024;14.492;2023-03-29T09:03:37;98393.75;;;3.08;61.23
75788;BME280;64406;50.024;14.492;2023-03-29T09:06:08;98399.44;;;3.11;62.56
75788;BME280;64406;50.024;14.492;2023-03-29T09:08:44;98396.06;;;3.04;63.20
75788;BME280;64406;50.024;14.492;2023-03-29T09:16:32;98400.28;;;2.93;66.56
75788;BME280;64406;50.024;14.492;2023-03-29T09:19:27;98398.19;;;2.95;67.53
75788;BME280;64406;50.024;14.492;2023-03-29T09:22:35;98395.50;;;2.84;68.65
75788;BME280;64406;50.024;14.492;2023-03-29T09:31:35;98369.97;;;2.94;69.94
75788;BME280;64406;50.024;14.492;2023-03-29T09:34:11;98369.44;;;2.74;69.82
75788;BME280;64406;50.024;14.492;2023-03-29T09:36:55;98365.84;;;2.98;69.89
75788;BME280;64406;50.024;14.492;2023-03-29T09:39:29;98363.56;;;3.14;69.76
75788;BME280;64406;50.024;14.492;2023-03-29T09:44:28;98359.53;;;3.23;68.25
75788;BME280;64406;50.024;14.492;2023-03-29T09:47:05;98342.34;;;3.49;66.98
75788;BME280;64406;50.024;14.492;2023-03-29T09:49:37;98349.88;;;3.75;66.55
75788;BME280;64406;50.024;14.492;2023-03-29T09:52:08;98345.03;;;3.84;66.43
75788;BME280;64406;50.024;14.492;2023-03-29T09:54:36;98351.25;;;4.13;66.14
75788;BME280;64406;50.024;14.492;2023-03-29T09:57:02;98350.06;;;4.44;65.20
75788;BME280;64406;50.024;14.492;2023-03-29T09:59:27;98337.44;;;4.28;63.61
75788;BME280;64406;50.024;14.492;2023-03-29T10:02:04;98339.19;;;4.22;64.01
75788;BME280;64406;50.024;14.492;2023-03-29T10:04:30;98347.41;;;4.32;64.18
75788;BME280;64406;50.024;14.492;2023-03-29T10:06:57;98345.66;;;4.38;63.19
75788;BME280;64406;50.024;14.492;2023-03-29T10:09:24;98341.72;;;4.29;63.91
75788;BME280;64406;50.024;14.492;2023-03-29T10:11:58;98345.34;;;4.11;64.17
75788;BME280;64406;50.024;14.492;2023-03-29T10:14:35;98347.78;;;3.89;65.24
75788;BME280;64406;50.024;14.492;2023-03-29T10:17:18;98341.66;;;4.00;65.25
75788;BME280;64406;50.024;14.492;2023-03-29T10:20:01;98331.59;;;3.91;65.19
75788;BME280;64406;50.024;14.492;2023-03-29T10:22:33;98332.72;;;4.18;64.70
75788;BME280;64406;50.024;14.492;2023-03-29T10:25:02;98325.50;;;4.30;64.30
75788;BME280;64406;50.024;14.492;2023-03-29T10:27:31;98320.69;;;4.56;63.47
75788;BME280;64406;50.024;14.492;2023-03-29T10:30:06;98324.47;;;4.88;63.05
75788;BME280;64406;50.024;14.492;2023-03-29T10:32:37;98315.94;;;5.03;62.64
75788;BME280;64406;50.024;14.492;2023-03-29T10:35:23;98326.03;;;5.01;62.27
75788;BME280;64406;50.024;14.492;2023-03-29T10:37:51;98323.81;;;5.10;62.08
75788;BME280;64406;50.024;14.492;2023-03-29T10:40:28;98320.31;;;5.09;62.03
75788;BME280;64406;50.024;14.492;2023-03-29T10:43:11;98325.03;;;5.36;61.77
75788;BME280;64406;50.024;14.492;2023-03-29T10:45:39;98311.28;;;5.44;61.63
75788;BME280;64406;50.024;14.492;2023-03-29T10:48:07;98303.03;;;5.62;60.90
75788;BME280;64406;50.024;14.492;2023-03-29T10:50:35;98306.91;;;5.38;61.05
75788;BME280;64406;50.024;14.492;2023-03-29T10:53:26;98299.84;;;5.65;60.95
75788;BME280;64406;50.024;14.492;2023-03-29T10:56:22;98303.22;;;5.78;60.54
75788;BME280;64406;50.024;14.492;2023-03-29T10:59:17;98299.13;;;5.53;60.71
75788;BME280;64406;50.024;14.492;2023-03-29T11:01:59;98298.78;;;5.66;61.03
75788;BME280;64406;50.024;14.492;2023-03-29T11:04:46;98289.38;;;5.97;59.86
75788;BME280;64406;50.024;14.492;2023-03-29T11:07:30;98291.19;;;6.36;58.87
75788;BME280;64406;50.024;14.492;2023-03-29T11:18:40;98280.38;;;6.47;59.30
75788;BME280;64406;50.024;14.492;2023-03-29T11:24:23;98276.84;;;6.96;57.61
75788;BME280;64406;50.024;14.492;2023-03-29T11:32:30;98268.69;;;7.92;55.99
75788;BME280;64406;50.024;14.492;2023-03-29T11:44:10;98251.00;;;7.96;55.24
75788;BME280;64406;50.024;14.492;2023-03-29T11:47:12;98257.72;;;7.99;55.51
75788;BME280;64406;50.024;14.492;2023-03-29T11:49:48;98236.28;;;7.51;56.17
75788;BME280;64406;50.024;14.492;2023-03-29T11:52:21;98249.13;;;7.12;58.00
75788;BME280;64406;50.024;14.492;2023-03-29T11:54:57;98249.78;;;7.29;58.59
75788;BME280;64406;50.024;14.492;2023-03-29T12:00:37;98223.63;;;7.42;57.64
75788;BME280;64406;50.024;14.492;2023-03-29T12:03:11;98229.53;;;7.44;57.44
75788;BME280;64406;50.024;14.492;2023-03-29T12:05:45;98227.16;;;7.47;57.02
75788;BME280;64406;50.024;14.492;2023-03-29T12:08:27;98218.91;;;7.59;57.76
75788;BME280;64406;50.024;14.492;2023-03-29T12:11:03;98216.94;;;7.44;57.83
75788;BME280;64406;50.024;14.492;2023-03-29T12:13:56;98219.97;;;7.53;56.69
75788;BME280;64406;50.024;14.492;2023-03-29T12:18:56;98215.81;;;7.82;56.70
75788;BME280;64406;50.024;14.492;2023-03-29T12:21:25;98212.38;;;7.87;56.54
75788;BME280;64406;50.024;14.492;2023-03-29T12:23:53;98208.38;;;7.95;56.61
75788;BME280;64406;50.024;14.492;2023-03-29T12:34:45;98195.19;;;7.88;56.84
75788;BME280;64406;50.024;14.492;2023-03-29T12:37:23;98193.97;;;8.21;55.64
75788;BME280;64406;50.024;14.492;2023-03-29T12:39:52;98182.31;;;7.90;56.26
75788;BME280;64406;50.024;14.492;2023-03-29T12:42:20;98199.78;;;7.93;57.11
75788;BME280;64406;50.024;14.492;2023-03-29T12:44:55;98197.66;;;8.05;55.74
75788;BME280;64406;50.024;14.492;2023-03-29T12:47:24;98197.25;;;8.38;55.65
75788;BME280;64406;50.024;14.492;2023-03-29T12:49:56;98192.72;;;8.44;54.71
75788;BME280;64406;50.024;14.492;2023-03-29T12:54:56;98199.19;;;8.63;54.37
75788;BME280;64406;50.024;14.492;2023-03-29T12:57:38;98191.16;;;9.24;53.42
75788;BME280;64406;50.024;14.492;2023-03-29T13:00:30;98186.84;;;9.29;53.55
75788;BME280;64406;50.024;14.492;2023-03-29T13:03:03;98178.00;;;9.08;53.08
75788;BME280;64406;50.024;14.492;2023-03-29T13:05:34;98179.31;;;9.41;53.32
75788;BME280;64406;50.024;14.492;2023-03-29T13:08:34;98169.81;;;9.64;51.85
75788;BME280;64406;50.024;14.492;2023-03-29T13:11:00;98165.44;;;9.93;51.32
75788;BME280;64406;50.024;14.492;2023-03-29T13:13:39;98159.34;;;10.22;50.32
75788;BME280;64406;50.024;14.492;2023-03-29T13:19:47;98162.81;;;10.77;48.55
75788;BME280;64406;50.024;14.492;2023-03-29T13:22:33;98144.66;;;11.93;46.62
75788;BME280;64406;50.024;14.492;2023-03-29T13:25:34;98145.81;;;12.30;44.94
75788;BME280;64406;50.024;14.492;2023-03-29T13:28:28;98139.00;;;12.14;45.94
75788;BME280;64406;50.024;14.492;2023-03-29T13:31:34;98133.53;;;12.75;44.80
75788;BME280;64406;50.024;14.492;2023-03-29T13:36:52;98140.72;;;13.45;43.75
75788;BME280;64406;50.024;14.492;2023-03-29T13:39:30;98135.03;;;13.14;42.68
75788;BME280;64406;50.024;14.492;2023-03-29T13:44:43;98135.25;;;12.85;43.00
75788;BME280;64406;50.024;14.492;2023-03-29T13:49:41;98123.81;;;11.99;45.45
75788;BME280;64406;50.024;14.492;2023-03-29T13:52:20;98115.13;;;12.40;45.84
75788;BME280;64406;50.024;14.492;2023-03-29T13:55:23;98123.25;;;12.40;45.33
75788;BME280;64406;50.024;14.492;2023-03-29T14:00:17;98116.25;;;12.90;43.51
75788;BME280;64406;50.024;14.492;2023-03-29T14:02:53;98100.34;;;13.49;42.63
75788;BME280;64406;50.024;14.492;2023-03-29T14:05:27;98112.22;;;12.55;44.44
75788;BME280;64406;50.024;14.492;2023-03-29T14:07:56;98101.47;;;13.15;44.17
75788;BME280;64406;50.024;14.492;2023-03-29T14:10:33;98105.34;;;13.69;42.20
75788;BME280;64406;50.024;14.492;2023-03-29T14:13:02;98116.28;;;12.71;43.26
75788;BME280;64406;50.024;14.492;2023-03-29T14:18:09;98117.56;;;10.74;48.09
75788;BME280;64406;50.024;14.492;2023-03-29T14:20:42;98112.38;;;11.11;47.56
75788;BME280;64406;50.024;14.492;2023-03-29T14:23:11;98097.75;;;11.65;46.74
75788;BME280;64406;50.024;14.492;2023-03-29T14:25:41;98104.19;;;11.93;46.37
75788;BME280;64406;50.024;14.492;2023-03-29T14:28:25;98090.66;;;12.69;44.82
75788;BME280;64406;50.024;14.492;2023-03-29T14:30:51;98079.63;;;14.08;41.74
75788;BME280;64406;50.024;14.492;2023-03-29T14:33:32;98077.28;;;13.51;41.77
75788;BME280;64406;50.024;14.492;2023-03-29T14:36:02;98075.41;;;12.59;43.83
75788;BME280;64406;50.024;14.492;2023-03-29T14:38:29;98083.56;;;12.21;46.26
75788;BME280;64406;50.024;14.492;2023-03-29T14:41:00;98072.44;;;12.04;46.62
75788;BME280;64406;50.024;14.492;2023-03-29T14:43:26;98065.53;;;11.74;47.08
75788;BME280;64406;50.024;14.492;2023-03-29T14:45:56;98081.06;;;11.15;48.23
75788;BME280;64406;50.024;14.492;2023-03-29T14:48:23;98078.81;;;10.70;50.09
75788;BME280;64406;50.024;14.492;2023-03-29T14:50:49;98071.66;;;10.55;50.14
75788;BME280;64406;50.024;14.492;2023-03-29T14:53:18;98074.72;;;11.01;49.71
75788;BME280;64406;50.024;14.492;2023-03-29T14:55:49;98069.00;;;11.08;48.51